sensor_id;sensor_type;location;lat;lon;timestamp;pressure;altitude;pressure_sealevel;temperature;humidity
41945;BME280;63122;52.424;13.458;2023-02-04T00:01:04;101501.81;;;3.40;100.00
41945;BME280;63122;52.424;13.458;2023-02-04T00:03:34;101515.78;;;3.39;100.00
41945;BME280;63122;52.424;13.458;2023-02-04T00:06:05;101524.53;;;3.38;100.00
41945;BME280;63122;52.424;13.458;2023-02-04T00:08:35;101531.78;;;3.33;100.00
41945;BME280;63122;52.424;13.458;2023-02-04T00:11:06;101557.00;;;3.33;100.00
41945;BME280;63122;52.424;13.458;2023-02-04T00:13:39;101557.75;;;3.35;100.00
41945;BME280;63122;52.424;13.458;2023-02-04T00:16:09;101570.56;;;3.39;100.00
41945;BME280;63122;52.424;13.458;2023-02-04T00:18:42;101587.91;;;3.40;100.00
41945;BME280;63122;52.424;13.458;2023-02-04T00:21:17;101591.44;;;3.39;100.00
41945;BME280;63122;52.424;13.458;2023-02-04T00:23:47;101592.28;;;3.40;100.00
41945;BME280;63122;52.424;13.458;2023-02-04T00:26:19;101611.53;;;3.37;100.00
41945;BME280;63122;52.424;13.458;2023-02-04T00:28:52;101613.31;;;3.37;100.00
41945;BME280;63122;52.424;13.458;2023-02-04T00:31:23;101622.13;;;3.34;100.00
41945;BME280;63122;52.424;13.458;2023-02-04T00:33:53;101618.78;;;3.32;100.00
41945;BME280;63122;52.424;13.458;2023-02-04T00:36:24;101624.06;;;3.30;100.00
41945;BME280;63122;52.424;13.458;2023-02-04T00:38:54;101638.19;;;3.26;100.00
41945;BME280;63122;52.424;13.458;2023-02-04T00:41:25;101651.22;;;3.26;100.00
41945;BME280;63122;52.424;13.458;2023-02-04T00:43:58;101654.97;;;3.21;100.00
41945;BME280;63122;52.424;13.458;2023-02-04T00:46:29;101675.09;;;3.19;100.00
41945;BME280;63122;52.424;13.458;2023-02-04T00:48:59;101691.59;;;3.19;100.00
41945;BME280;63122;52.424;13.458;2023-02-04T00:51:30;101703.25;;;3.12;100.00
41945;BME280;63122;52.424;13.458;2023-02-04T00:54:00;101713.84;;;3.09;100.00
41945;BME280;63122;52.424;13.458;2023-02-04T00:56:31;101737.22;;;3.10;100.00
41945;BME280;63122;52.424;13.458;2023-02-04T00:59:04;101739.22;;;3.05;100.00
41945;BME280;63122;52.424;13.458;2023-02-04T01:01:35;101746.19;;;3.05;100.00
41945;BME280;63122;52.424;13.458;2023-02-04T01:04:06;101767.19;;;3.01;100.00
41945;BME280;63122;52.424;13.458;2023-02-04T01:06:36;101774.09;;;3.02;100.00
41945;BME280;63122;52.424;13.458;2023-02-04T01:09:07;101786.31;;;3.02;100.00
41945;BME280;63122;52.424;13.458;2023-02-04T01:11:38;101788.81;;;3.03;100.00
41945;BME280;63122;52.424;13.458;2023-02-04T01:14:11;101795.72;;;3.05;100.00
41945;BME280;63122;52.424;13.458;2023-02-04T01:16:41;101801.94;;;3.02;100.00
41945;BME280;63122;52.424;13.458;2023-02-04T01:19:14;101806.38;;;3.00;100.00
41945;BME280;63122;52.424;13.458;2023-02-04T01:21:45;101814.38;;;2.97;100.00
41945;BME280;63122;52.424;13.458;2023-02-04T01:24:15;101821.63;;;2.90;100.00
41945;BME280;63122;52.424;13.458;2023-02-04T01:26:47;101831.28;;;2.88;100.00
41945;BME280;63122;52.424;13.458;2023-02-04T01:29:21;101841.69;;;2.88;100.00
41945;BME280;63122;52.424;13.458;2023-02-04T01:31:52;101860.09;;;2.85;100.00
41945;BME280;63122;52.424;13.458;2023-02-04T01:34:23;101873.03;;;2.86;100.00
41945;BME280;63122;52.424;13.458;2023-02-04T01:36:54;101879.94;;;2.87;100.00
41945;BME280;63122;52.424;13.458;2023-02-04T01:39:24;101888.06;;;2.81;100.00
41945;BME280;63122;52.424;13.458;2023-02-04T01:41:55;101899.34;;;2.82;100.00
41945;BME280;63122;52.424;13.458;2023-02-04T01:44:30;101914.06;;;2.83;100.00
41945;BME280;63122;52.424;13.458;2023-02-04T01:47:02;101920.03;;;2.85;100.00
41945;BME280;63122;52.424;13.458;2023-02-04T01:49:37;101912.28;;;2.83;100.00
41945;BME280;63122;52.424;13.458;2023-02-04T01:52:09;101913.41;;;2.78;100.00
41945;BME280;63122;52.424;13.458;2023-02-04T01:54:40;101932.56;;;2.77;100.00
41945;BME280;63122;52.424;13.458;2023-02-04T01:57:14;101930.19;;;2.72;100.00
41945;BME280;63122;52.424;13.458;2023-02-04T01:59:48;101938.91;;;2.71;100.00
41945;BME280;63122;52.424;13.458;2023-02-04T02:02:37;101959.81;;;2.69;100.00
41945;BME280;63122;52.424;13.458;2023-02-04T02:05:09;101966.09;;;2.65;100.00
41945;BME280;63122;52.424;13.458;2023-02-04T02:07:41;101991.19;;;2.68;100.00
41945;BME280;63122;52.424;13.458;2023-02-04T02:10:12;101993.09;;;2.63;100.00
41945;BME280;63122;52.424;13.458;2023-02-04T02:12:44;101995.94;;;2.58;100.00
41945;BME280;63122;52.424;13.458;2023-02-04T02:15:17;102007.97;;;2.61;100.00
41945;BME280;63122;52.424;13.458;2023-02-04T02:17:48;102009.66;;;2.62;100.00
41945;BME280;63122;52.424;13.458;2023-02-04T02:20:20;102016.84;;;2.56;100.00
41945;BME280;63122;52.424;13.458;2023-02-04T02:22:59;102016.13;;;2.53;100.00
41945;BME280;63122;52.424;13.458;2023-02-04T02:25:33;102032.59;;;2.53;100.00
41945;BME280;63122;52.424;13.458;2023-02-04T02:28:09;102036.97;;;2.53;100.00
41945;BME280;63122;52.424;13.458;2023-02-04T02:30:40;102047.41;;;2.53;100.00
41945;BME280;63122;52.424;13.458;2023-02-04T02:33:14;102045.72;;;2.52;100.00
41945;BME280;63122;52.424;13.458;2023-02-04T02:35:45;102052.03;;;2.46;100.00
41945;BME280;63122;52.424;13.458;2023-02-04T02:38:18;102053.84;;;2.44;100.00
41945;BME280;63122;52.424;13.458;2023-02-04T02:40:51;102068.59;;;2.43;100.00
41945;BME280;63122;52.424;13.458;2023-02-04T02:43:26;102074.72;;;2.42;100.00
41945;BME280;63122;52.424;13.458;2023-02-04T02:45:58;102075.66;;;2.41;100.00
41945;BME280;63122;52.424;13.458;2023-02-04T02:48:29;102083.53;;;2.40;100.00
41945;BME280;63122;52.424;13.458;2023-02-04T02:51:00;102084.38;;;2.40;100.00
41945;BME280;63122;52.424;13.458;2023-02-04T02:53:30;102090.56;;;2.38;100.00
41945;BME280;63122;52.424;13.458;2023-02-04T02:56:03;102092.44;;;2.34;100.00
41945;BME280;63122;52.424;13.458;2023-02-04T02:58:34;102104.59;;;2.34;100.00
41945;BME280;63122;52.424;13.458;2023-02-04T03:01:06;102112.53;;;2.30;100.00
41945;BME280;63122;52.424;13.458;2023-02-04T03:03:39;102111.59;;;2.33;100.00
41945;BME280;63122;52.424;13.458;2023-02-04T03:06:14;102116.97;;;2.28;100.00
41945;BME280;63122;52.424;13.458;2023-02-04T03:08:47;102125.78;;;2.26;100.00
41945;BME280;63122;52.424;13.458;2023-02-04T03:11:21;102132.66;;;2.27;100.00
41945;BME280;63122;52.424;13.458;2023-02-04T03:13:56;102144.91;;;2.25;100.00
41945;BME280;63122;52.424;13.458;2023-02-04T03:16:28;102160.59;;;2.23;100.00
41945;BME280;63122;52.424;13.458;2023-02-04T03:18:59;102158.88;;;2.22;100.00
41945;BME280;63122;52.424;13.458;2023-02-04T03:21:34;102169.19;;;2.25;100.00
41945;BME280;63122;52.424;13.458;2023-02-04T03:24:05;102160.63;;;2.22;100.00
41945;BME280;63122;52.424;13.458;2023-02-04T03:26:50;102178.94;;;2.20;100.00
41945;BME280;63122;52.424;13.458;2023-02-04T03:29:21;102192.78;;;2.21;100.00
41945;BME280;63122;52.424;13.458;2023-02-04T03:31:51;102200.59;;;2.21;100.00
41945;BME280;63122;52.424;13.458;2023-02-04T03:34:22;102208.59;;;2.16;100.00
41945;BME280;63122;52.424;13.458;2023-02-04T03:36:52;102224.09;;;2.19;100.00
41945;BME280;63122;52.424;13.458;2023-02-04T03:39:22;102224.28;;;2.14;100.00
41945;BME280;63122;52.424;13.458;2023-02-04T03:41:55;102231.41;;;2.09;100.00
41945;BME280;63122;52.424;13.458;2023-02-04T03:44:25;102241.84;;;2.09;100.00
41945;BME280;63122;52.424;13.458;2023-02-04T03:46:55;102248.78;;;2.09;100.00
41945;BME280;63122;52.424;13.458;2023-02-04T03:49:26;102261.25;;;2.00;100.00
41945;BME280;63122;52.424;13.458;2023-02-04T03:51:58;102272.50;;;2.01;100.00
41945;BME280;63122;52.424;13.458;2023-02-04T03:54:28;102276.94;;;1.99;100.00
41945;BME280;63122;52.424;13.458;2023-02-04T03:57:01;102289.84;;;2.02;100.00
41945;BME280;63122;52.424;13.458;2023-02-04T03:59:31;102296.00;;;1.99;100.00
41945;BME280;63122;52.424;13.458;2023-02-04T04:02:01;102296.22;;;1.93;100.00
41945;BME280;63122;52.424;13.458;2023-02-04T04:04:32;102297.97;;;1.93;100.00
41945;BME280;63122;52.424;13.458;2023-02-04T04:07:02;102309.34;;;1.90;100.00
41945;BME280;63122;52.424;13.458;2023-02-04T04:09:33;102311.19;;;1.86;100.00
41945;BME280;63122;52.424;13.458;2023-02-04T04:12:06;102319.06;;;1.85;100.00
41945;BME280;63122;52.424;13.458;2023-02-04T04:14:37;102333.78;;;1.86;100.00
41945;BME280;63122;52.424;13.458;2023-02-04T04:17:07;102332.91;;;1.85;100.00
41945;BME280;63122;52.424;13.458;2023-02-04T04:19:38;102326.88;;;1.85;100.00
41945;BME280;63122;52.424;13.458;2023-02-04T04:22:10;102349.41;;;1.86;100.00
41945;BME280;63122;52.424;13.458;2023-02-04T04:24:41;102357.31;;;1.83;100.00
41945;BME280;63122;52.424;13.458;2023-02-04T04:27:14;102361.69;;;1.81;100.00
41945;BME280;63122;52.424;13.458;2023-02-04T04:29:44;102365.38;;;1.75;100.00
41945;BME280;63122;52.424;13.458;2023-02-04T04:32:14;102370.50;;;1.77;100.00
41945;BME280;63122;52.424;13.458;2023-02-04T04:34:45;102373.97;;;1.77;100.00
41945;BME280;63122;52.424;13.458;2023-02-04T04:37:15;102381.00;;;1.75;100.00
41945;BME280;63122;52.424;13.458;2023-02-04T04:39:45;102388.91;;;1.72;100.00
41945;BME280;63122;52.424;13.458;2023-02-04T04:42:17;102397.44;;;1.76;100.00
41945;BME280;63122;52.424;13.458;2023-02-04T04:44:48;102397.44;;;1.76;100.00
41945;BME280;63122;52.424;13.458;2023-02-04T04:47:18;102407.16;;;1.70;100.00
41945;BME280;63122;52.424;13.458;2023-02-04T04:49:48;102410.63;;;1.71;100.00
41945;BME280;63122;52.424;13.458;2023-02-04T04:52:18;102425.28;;;1.73;100.00
41945;BME280;63122;52.424;13.458;2023-02-04T04:54:48;102436.47;;;1.76;100.00
41945;BME280;63122;52.424;13.458;2023-02-04T04:57:21;102437.47;;;1.71;100.00
41945;BME280;63122;52.424;13.458;2023-02-04T04:59:51;102446.19;;;1.70;100.00
41945;BME280;63122;52.424;13.458;2023-02-04T05:02:21;102456.66;;;1.69;100.00
41945;BME280;63122;52.424;13.458;2023-02-04T05:04:52;102454.13;;;1.66;100.00
41945;BME280;63122;52.424;13.458;2023-02-04T05:07:22;102463.75;;;1.64;100.00
41945;BME280;63122;52.424;13.458;2023-02-04T05:09:52;102470.56;;;1.68;100.00
41945;BME280;63122;52.424;13.458;2023-02-04T05:12:24;102472.41;;;1.64;100.00
41945;BME280;63122;52.424;13.458;2023-02-04T05:14:55;102479.41;;;1.62;100.00
41945;BME280;63122;52.424;13.458;2023-02-04T05:17:25;102477.66;;;1.63;100.00
41945;BME280;63122;52.424;13.458;2023-02-04T05:19:55;102485.63;;;1.58;100.00
41945;BME280;63122;52.424;13.458;2023-02-04T05:22:25;102494.38;;;1.55;100.00
41945;BME280;63122;52.424;13.458;2023-02-04T05:24:56;102502.97;;;1.57;100.00
41945;BME280;63122;52.424;13.458;2023-02-04T05:27:28;102503.97;;;1.53;100.00
41945;BME280;63122;52.424;13.458;2023-02-04T05:29:59;102510.91;;;1.53;100.00
41945;BME280;63122;52.424;13.458;2023-02-04T05:32:29;102520.38;;;1.55;100.00
41945;BME280;63122;52.424;13.458;2023-02-04T05:34:59;102510.09;;;1.51;100.00
41945;BME280;63122;52.424;13.458;2023-02-04T05:37:34;102530.06;;;1.50;100.00
41945;BME280;63122;52.424;13.458;2023-02-04T05:40:05;102531.78;;;1.51;100.00
41945;BME280;63122;52.424;13.458;2023-02-04T05:42:38;102539.69;;;1.48;100.00
41945;BME280;63122;52.424;13.458;2023-02-04T05:45:12;102544.91;;;1.47;100.00
41945;BME280;63122;52.424;13.458;2023-02-04T05:47:42;102552.69;;;1.48;100.00
41945;BME280;63122;52.424;13.458;2023-02-04T05:50:14;102550.22;;;1.43;100.00
41945;BME280;63122;52.424;13.458;2023-02-04T05:52:44;102556.44;;;1.38;100.00
41945;BME280;63122;52.424;13.458;2023-02-04T05:55:14;102568.50;;;1.40;100.00
41945;BME280;63122;52.424;13.458;2023-02-04T05:57:47;102575.50;;;1.38;100.00
41945;BME280;63122;52.424;13.458;2023-02-04T06:00:18;102577.25;;;1.38;100.00
41945;BME280;63122;52.424;13.458;2023-02-04T06:02:48;102585.00;;;1.41;100.00
41945;BME280;63122;52.424;13.458;2023-02-04T06:05:19;102586.84;;;1.36;100.00
41945;BME280;63122;52.424;13.458;2023-02-04T06:07:49;102589.50;;;1.34;100.00
41945;BME280;63122;52.424;13.458;2023-02-04T06:10:19;102594.81;;;1.29;100.00
41945;BME280;63122;52.424;13.458;2023-02-04T06:12:52;102609.53;;;1.31;100.00
41945;BME280;63122;52.424;13.458;2023-02-04T06:15:22;102613.13;;;1.26;100.00
41945;BME280;63122;52.424;13.458;2023-02-04T06:17:52;102618.34;;;1.25;100.00
41945;BME280;63122;52.424;13.458;2023-02-04T06:20:24;102628.81;;;1.23;100.00
41945;BME280;63122;52.424;13.458;2023-02-04T06:22:54;102628.75;;;1.25;100.00
41945;BME280;63122;52.424;13.458;2023-02-04T06:25:25;102628.91;;;1.20;100.00
41945;BME280;63122;52.424;13.458;2023-02-04T06:27:58;102642.81;;;1.18;100.00
41945;BME280;63122;52.424;13.458;2023-02-04T06:30:28;102644.59;;;1.17;100.00
41945;BME280;63122;52.424;13.458;2023-02-04T06:32:59;102639.50;;;1.12;100.00
41945;BME280;63122;52.424;13.458;2023-02-04T06:35:30;102651.59;;;1.13;100.00
41945;BME280;63122;52.424;13.458;2023-02-04T06:38:00;102656.78;;;1.15;100.00
41945;BME280;63122;52.424;13.458;2023-02-04T06:40:31;102664.72;;;1.09;100.00
41945;BME280;63122;52.424;13.458;2023-02-04T06:43:04;102662.19;;;1.06;100.00
41945;BME280;63122;52.424;13.458;2023-02-04T06:45:34;102665.69;;;1.05;100.00
41945;BME280;63122;52.424;13.458;2023-02-04T06:48:04;102665.84;;;0.98;100.00
41945;BME280;63122;52.424;13.458;2023-02-04T06:50:34;102671.75;;;1.05;100.00
41945;BME280;63122;52.424;13.458;2023-02-04T06:53:04;102669.19;;;1.04;100.00
41945;BME280;63122;52.424;13.458;2023-02-04T06:55:35;102671.78;;;1.04;100.00
41945;BME280;63122;52.424;13.458;2023-02-04T06:58:08;102670.16;;;0.99;100.00
41945;BME280;63122;52.424;13.458;2023-02-04T07:00:38;102676.22;;;1.00;100.00
41945;BME280;63122;52.424;13.458;2023-02-04T07:03:08;102670.22;;;0.98;100.00
41945;BME280;63122;52.424;13.458;2023-02-04T07:05:39;102678.03;;;0.98;100.00
41945;BME280;63122;52.424;13.458;2023-02-04T07:08:09;102673.75;;;0.94;100.00
41945;BME280;63122;52.424;13.458;2023-02-04T07:10:39;102680.56;;;0.99;100.00
41945;BME280;63122;52.424;13.458;2023-02-04T07:13:12;102684.88;;;1.00;100.00
41945;BME280;63122;52.424;13.458;2023-02-04T07:15:42;102677.06;;;1.00;100.00
41945;BME280;63122;52.424;13.458;2023-02-04T07:18:13;102684.78;;;1.04;100.00
41945;BME280;63122;52.424;13.458;2023-02-04T07:20:44;102683.97;;;1.02;100.00
41945;BME280;63122;52.424;13.458;2023-02-04T07:23:14;102685.81;;;0.98;100.00
41945;BME280;63122;52.424;13.458;2023-02-04T07:25:44;102694.47;;;0.97;100.00
41945;BME280;63122;52.424;13.458;2023-02-04T07:28:17;102698.81;;;0.98;100.00
41945;BME280;63122;52.424;13.458;2023-02-04T07:30:48;102708.38;;;0.96;100.00
41945;BME280;63122;52.424;13.458;2023-02-04T07:33:18;102710.91;;;0.99;100.00
41945;BME280;63122;52.424;13.458;2023-02-04T07:35:49;102714.28;;;1.03;100.00
41945;BME280;63122;52.424;13.458;2023-02-04T07:38:19;102719.63;;;0.96;100.00
41945;BME280;63122;52.424;13.458;2023-02-04T07:40:49;102722.22;;;0.96;100.00
41945;BME280;63122;52.424;13.458;2023-02-04T07:43:22;102732.63;;;0.96;100.00
41945;BME280;63122;52.424;13.458;2023-02-04T07:45:52;102736.91;;;0.99;100.00
41945;BME280;63122;52.424;13.458;2023-02-04T07:48:22;102741.97;;;1.04;100.00
41945;BME280;63122;52.424;13.458;2023-02-04T07:50:53;102749.78;;;1.04;100.00
41945;BME280;63122;52.424;13.458;2023-02-04T07:53:22;102754.88;;;1.07;100.00
41945;BME280;63122;52.424;13.458;2023-02-04T07:55:53;102757.38;;;1.11;100.00
41945;BME280;63122;52.424;13.458;2023-02-04T07:58:25;102766.81;;;1.15;100.00
41945;BME280;63122;52.424;13.458;2023-02-04T08:00:56;102771.94;;;1.19;100.00
41945;BME280;63122;52.424;13.458;2023-02-04T08:03:27;102782.22;;;1.23;100.00
41945;BME280;63122;52.424;13.458;2023-02-04T08:05:59;102785.56;;;1.28;100.00
41945;BME280;63122;52.424;13.458;2023-02-04T08:08:29;102791.47;;;1.35;100.00
41945;BME280;63122;52.424;13.458;2023-02-04T08:10:59;102793.91;;;1.41;100.00
41945;BME280;63122;52.424;13.458;2023-02-04T08:13:32;102796.31;;;1.49;100.00
41945;BME280;63122;52.424;13.458;2023-02-04T08:16:02;102804.78;;;1.57;100.00
41945;BME280;63122;52.424;13.458;2023-02-04T08:18:32;102797.56;;;1.69;100.00
41945;BME280;63122;52.424;13.458;2023-02-04T08:21:03;102799.84;;;1.80;100.00
41945;BME280;63122;52.424;13.458;2023-02-04T08:23:33;102800.63;;;1.83;100.00
41945;BME280;63122;52.424;13.458;2023-02-04T08:26:08;102807.25;;;1.94;100.00
41945;BME280;63122;52.424;13.458;2023-02-04T08:28:41;102807.94;;;2.02;100.00
41945;BME280;63122;52.424;13.458;2023-02-04T08:31:11;102804.28;;;2.08;100.00
41945;BME280;63122;52.424;13.458;2023-02-04T08:33:41;102819.47;;;2.23;100.00
41945;BME280;63122;52.424;13.458;2023-02-04T08:36:12;102812.34;;;2.30;100.00
41945;BME280;63122;52.424;13.458;2023-02-04T08:38:42;102812.25;;;2.33;100.00
41945;BME280;63122;52.424;13.458;2023-02-04T08:41:13;102823.34;;;2.40;100.00
41945;BME280;63122;52.424;13.458;2023-02-04T08:44:01;102820.50;;;2.48;100.00
41945;BME280;63122;52.424;13.458;2023-02-04T08:46:34;102825.28;;;2.62;100.00
41945;BME280;63122;52.424;13.458;2023-02-04T08:49:05;102825.13;;;2.68;100.00
41945;BME280;63122;52.424;13.458;2023-02-04T08:51:46;102819.66;;;2.76;100.00
41945;BME280;63122;52.424;13.458;2023-02-04T08:54:18;102822.59;;;2.93;100.00
41945;BME280;63122;52.424;13.458;2023-02-04T08:56:50;102825.47;;;3.12;100.00
41945;BME280;63122;52.424;13.458;2023-02-04T08:59:24;102826.78;;;3.26;100.00
41945;BME280;63122;52.424;13.458;2023-02-04T09:01:56;102825.34;;;3.42;100.00
41945;BME280;63122;52.424;13.458;2023-02-04T09:05:01;102830.88;;;3.60;100.00
41945;BME280;63122;52.424;13.458;2023-02-04T09:07:47;102839.38;;;3.65;100.00
41945;BME280;63122;52.424;13.458;2023-02-04T09:10:18;102843.44;;;3.74;100.00
41945;BME280;63122;52.424;13.458;2023-02-04T09:12:48;102845.84;;;3.80;100.00
41945;BME280;63122;52.424;13.458;2023-02-04T09:15:24;102847.03;;;3.97;100.00
41945;BME280;63122;52.424;13.458;2023-02-04T09:17:55;102859.13;;;4.23;100.00
41945;BME280;63122;52.424;13.458;2023-02-04T09:20:30;102848.50;;;4.52;100.00
41945;BME280;63122;52.424;13.458;2023-02-04T09:23:03;102854.28;;;4.60;100.00
41945;BME280;63122;52.424;13.458;2023-02-04T09:25:35;102854.25;;;4.61;100.00
41945;BME280;63122;52.424;13.458;2023-02-04T09:28:05;102856.25;;;4.77;100.00
41945;BME280;63122;52.424;13.458;2023-02-04T09:30:39;102866.72;;;4.77;100.00
41945;BME280;63122;52.424;13.458;2023-02-04T09:33:11;102865.91;;;4.97;100.00
41945;BME280;63122;52.424;13.458;2023-02-04T09:35:41;102873.84;;;4.96;100.00
41945;BME280;63122;52.424;13.458;2023-02-04T09:38:11;102877.91;;;5.03;100.00
41945;BME280;63122;52.424;13.458;2023-02-04T09:40:43;102881.72;;;5.16;100.00
41945;BME280;63122;52.424;13.458;2023-02-04T09:43:19;102888.72;;;5.38;100.00
41945;BME280;63122;52.424;13.458;2023-02-04T09:45:54;102891.94;;;5.45;100.00
41945;BME280;63122;52.424;13.458;2023-02-04T09:48:25;102899.03;;;5.64;100.00
41945;BME280;63122;52.424;13.458;2023-02-04T09:51:02;102895.25;;;5.71;100.00
41945;BME280;63122;52.424;13.458;2023-02-04T09:53:34;102894.34;;;5.93;100.00
41945;BME280;63122;52.424;13.458;2023-02-04T09:56:08;102902.75;;;5.99;100.00
41945;BME280;63122;52.424;13.458;2023-02-04T09:58:39;102900.75;;;6.27;100.00
41945;BME280;63122;52.424;13.458;2023-02-04T10:01:15;102901.41;;;6.51;100.00
41945;BME280;63122;52.424;13.458;2023-02-04T10:03:49;102901.09;;;6.38;100.00
41945;BME280;63122;52.424;13.458;2023-02-04T10:06:22;102902.31;;;6.31;100.00
41945;BME280;63122;52.424;13.458;2023-02-04T10:08:53;102906.44;;;6.37;100.00
41945;BME280;63122;52.424;13.458;2023-02-04T10:11:25;102911.03;;;6.31;100.00
41945;BME280;63122;52.424;13.458;2023-02-04T10:13:56;102911.78;;;6.14;100.00
41945;BME280;63122;52.424;13.458;2023-02-04T10:16:42;102905.25;;;6.23;100.00
41945;BME280;63122;52.424;13.458;2023-02-04T10:19:14;102911.97;;;6.10;100.00
41945;BME280;63122;52.424;13.458;2023-02-04T10:21:51;102910.38;;;6.26;100.00
41945;BME280;63122;52.424;13.458;2023-02-04T10:24:36;102910.31;;;6.28;100.00
41945;BME280;63122;52.424;13.458;2023-02-04T10:27:16;102919.13;;;6.46;100.00
41945;BME280;63122;52.424;13.458;2023-02-04T10:29:57;102921.69;;;6.67;100.00
41945;BME280;63122;52.424;13.458;2023-02-04T10:32:32;102923.09;;;7.12;100.00
41945;BME280;63122;52.424;13.458;2023-02-04T10:35:03;102920.69;;;7.44;100.00
41945;BME280;63122;52.424;13.458;2023-02-04T10:37:33;102932.13;;;7.78;100.00
41945;BME280;63122;52.424;13.458;2023-02-04T10:40:04;102927.94;;;7.57;100.00
41945;BME280;63122;52.424;13.458;2023-02-04T10:42:35;102925.75;;;7.30;100.00
41945;BME280;63122;52.424;13.458;2023-02-04T10:45:19;102926.81;;;7.26;100.00
41945;BME280;63122;52.424;13.458;2023-02-04T10:47:54;102935.38;;;6.93;100.00
41945;BME280;63122;52.424;13.458;2023-02-04T10:50:31;102935.00;;;6.81;100.00
41945;BME280;63122;52.424;13.458;2023-02-04T10:53:01;102936.22;;;7.12;100.00
41945;BME280;63122;52.424;13.458;2023-02-04T10:55:46;102926.91;;;7.42;100.00
41945;BME280;63122;52.424;13.458;2023-02-04T10:58:19;102930.88;;;7.51;100.00
41945;BME280;63122;52.424;13.458;2023-02-04T11:00:53;102927.97;;;7.01;100.00
41945;BME280;63122;52.424;13.458;2023-02-04T11:03:42;102925.88;;;6.90;100.00
41945;BME280;63122;52.424;13.458;2023-02-04T11:06:23;102936.78;;;7.00;100.00
41945;BME280;63122;52.424;13.458;2023-02-04T11:08:53;102935.66;;;7.05;100.00
41945;BME280;63122;52.424;13.458;2023-02-04T11:11:25;102948.75;;;7.25;100.00
41945;BME280;63122;52.424;13.458;2023-02-04T11:14:00;102939.75;;;7.48;100.00
41945;BME280;63122;52.424;13.458;2023-02-04T11:16:32;102935.75;;;7.58;100.00
41945;BME280;63122;52.424;13.458;2023-02-04T11:19:10;102936.84;;;7.54;100.00
41945;BME280;63122;52.424;13.458;2023-02-04T11:21:44;102935.72;;;7.41;100.00
41945;BME280;63122;52.424;13.458;2023-02-04T11:24:23;102935.81;;;7.02;100.00
41945;BME280;63122;52.424;13.458;2023-02-04T11:27:05;102941.84;;;6.85;100.00
41945;BME280;63122;52.424;13.458;2023-02-04T11:30:04;102950.75;;;7.37;100.00
41945;BME280;63122;52.424;13.458;2023-02-04T11:32:36;102953.59;;;7.52;100.00
41945;BME280;63122;52.424;13.458;2023-02-04T11:35:24;102954.28;;;7.55;100.00
41945;BME280;63122;52.424;13.458;2023-02-04T11:37:56;102958.38;;;7.43;100.00
41945;BME280;63122;52.424;13.458;2023-02-04T11:40:29;102961.28;;;7.37;100.00
41945;BME280;63122;52.424;13.458;2023-02-04T11:43:02;102970.47;;;7.46;99.43
41945;BME280;63122;52.424;13.458;2023-02-04T11:45:34;102972.16;;;7.10;100.00
41945;BME280;63122;52.424;13.458;2023-02-04T11:48:11;102969.13;;;7.19;100.00
41945;BME280;63122;52.424;13.458;2023-02-04T11:50:54;102978.06;;;7.15;100.00
41945;BME280;63122;52.424;13.458;2023-02-04T11:53:28;102977.41;;;7.10;100.00
41945;BME280;63122;52.424;13.458;2023-02-04T11:55:58;102984.63;;;7.24;99.10
41945;BME280;63122;52.424;13.458;2023-02-04T11:58:30;102986.59;;;7.01;100.00
41945;BME280;63122;52.424;13.458;2023-02-04T12:01:00;102972.59;;;6.82;100.00
41945;BME280;63122;52.424;13.458;2023-02-04T12:03:31;102980.13;;;7.09;100.00
41945;BME280;63122;52.424;13.458;2023-02-04T12:06:05;102973.50;;;7.19;100.00
41945;BME280;63122;52.424;13.458;2023-02-04T12:08:36;102978.41;;;7.08;100.00
41945;BME280;63122;52.424;13.458;2023-02-04T12:11:09;102972.59;;;7.01;100.00
41945;BME280;63122;52.424;13.458;2023-02-04T12:13:47;102966.16;;;6.89;100.00
41945;BME280;63122;52.424;13.458;2023-02-04T12:16:17;102964.75;;;6.42;100.00
41945;BME280;63122;52.424;13.458;2023-02-04T12:18:48;102971.84;;;6.40;100.00
41945;BME280;63122;52.424;13.458;2023-02-04T12:21:21;102965.94;;;6.34;100.00
41945;BME280;63122;52.424;13.458;2023-02-04T12:23:51;102970.16;;;6.18;100.00
41945;BME280;63122;52.424;13.458;2023-02-04T12:26:21;102969.34;;;6.16;100.00
41945;BME280;63122;52.424;13.458;2023-02-04T12:28:52;102973.22;;;6.07;100.00
41945;BME280;63122;52.424;13.458;2023-02-04T12:31:22;102987.38;;;6.03;100.00
41945;BME280;63122;52.424;13.458;2023-02-04T12:33:52;102987.38;;;6.24;100.00
41945;BME280;63122;52.424;13.458;2023-02-04T12:36:25;102992.31;;;6.31;100.00
41945;BME280;63122;52.424;13.458;2023-02-04T12:38:56;102985.44;;;6.48;100.00
41945;BME280;63122;52.424;13.458;2023-02-04T12:41:28;102985.28;;;6.32;100.00
41945;BME280;63122;52.424;13.458;2023-02-04T12:43:59;102998.13;;;6.38;100.00
41945;BME280;63122;52.424;13.458;2023-02-04T12:46:29;102999.91;;;6.38;100.00
41945;BME280;63122;52.424;13.458;2023-02-04T12:48:59;102999.03;;;6.37;100.00
41945;BME280;63122;52.424;13.458;2023-02-04T12:51:32;103000.53;;;6.43;100.00
41945;BME280;63122;52.424;13.458;2023-02-04T12:54:03;102996.22;;;6.42;100.00
41945;BME280;63122;52.424;13.458;2023-02-04T12:56:33;103006.97;;;6.56;100.00
41945;BME280;63122;52.424;13.458;2023-02-04T12:59:04;103001.91;;;6.52;100.00
41945;BME280;63122;52.424;13.458;2023-02-04T13:01:34;103000.91;;;6.54;100.00
41945;BME280;63122;52.424;13.458;2023-02-04T13:04:07;103009.69;;;6.53;100.00
41945;BME280;63122;52.424;13.458;2023-02-04T13:06:49;103010.06;;;6.45;100.00